Ital Oriente — A8LN2 — position and weather

sailwx.info

Track history (hours):
 
Tides and Currents Weather Stations Pressure Air Temp Water Temp Dewpoint Dewpoint Depression Visibility Wind Speed Wind Dir Waves Ship Positions

Ital Oriente

Last reported at 2014-Sep-26 13:33 UTC. Time now 2014-Oct-01 04:00 UTC.
Position N 40°27' E 028°38'.

Length 222 m; draft 8.8 m.

Type: Cargo ship. MMSI: 636091278.

Date/timePositionNaut miles runAvg speedWind from/ knotsBaromVisibWave heightAir tempDewpointWater temp
2014-Sep-26 13:33N 40°27' E 028°38'1615.2
2014-Sep-26 12:29N 40°26' E 028°60'4 1.8
2014-Sep-26 10:11N 40°25' E 029°05'0 0.0
2014-Sep-26 06:29N 40°25' E 029°05'0 0.0
2014-Sep-26 05:11N 40°25' E 029°05'0 0.0
2014-Sep-26 04:29N 40°25' E 029°05'0 0.0
2014-Sep-26 02:29N 40°25' E 029°05'0 0.0
2014-Sep-26 01:29N 40°25' E 029°05'3 2.2
2014-Sep-26 00:11N 40°28' E 029°03'1 0.3
2014-Sep-25 21:24N 40°27' E 029°02'1213.9
2014-Sep-25 20:31N 40°30' E 028°46'1313.3
2014-Sep-25 19:33N 40°40' E 028°57'1515.3
2014-Sep-25 18:33N 40°43' E 029°17'1211.4
2014-Sep-25 17:31N 40°46' E 029°32'0 0.3
2014-Sep-25 16:30N 40°46' E 029°32'0 0.0
2014-Sep-25 15:30N 40°46' E 029°32'0 0.0
2014-Sep-25 14:24N 40°46' E 029°32'0 0.0
2014-Sep-25 13:24N 40°46' E 029°32'0 0.0
2014-Sep-25 12:18N 40°46' E 029°32'0 0.0
2014-Sep-25 10:24N 40°46' E 029°32'0 0.0
2014-Sep-25 08:24N 40°46' E 029°32'0 0.0
2014-Sep-25 06:24N 40°46' E 029°32'5 5.3
2014-Sep-25 05:30N 40°44' E 029°26'8 8.8
2014-Sep-25 04:33N 40°45' E 029°15'1312.8
2014-Sep-25 03:32N 40°51' E 028°60'9 9.4
2014-Sep-25 02:32N 41°00' E 028°60'1 0.2
2014-Sep-24 21:11N 41°00' E 029°01'0 0.0
2014-Sep-24 20:31N 41°00' E 029°01'2 2.1
2014-Sep-24 19:33N 40°58' E 028°60'9 9.1
2014-Sep-24 18:33N 40°51' E 028°54'4 3.7
2014-Sep-24 17:32N 40°51' E 028°49'8 0.5
2014-Sep-24 01:31N 40°56' E 028°41'2 0.1
2014-Sep-23 09:09N 40°56' E 028°38'5 8.3
2014-Sep-23 08:31N 40°54' E 028°31'16714.0
2014-Sep-22 20:32N 39°20' E 025°30'2118.8
2014-Sep-22 19:24N 39°01' E 025°18'1618.8
2014-Sep-22 18:33N 38°47' E 025°09'5618.4
2014-Sep-22 15:32N 37°57' E 024°37'1918.9
2014-Sep-22 14:33N 37°45' E 024°19'1817.9
2014-Sep-22 13:33N 37°36' E 023°60'1717.1
2014-Sep-22 12:33N 37°43' E 023°40'1414.2
2014-Sep-22 11:33N 37°56' E 023°36'1 1.1
2014-Sep-22 10:33N 37°57' E 023°35'0 0.0
2014-Sep-22 09:33N 37°57' E 023°35'0 0.0
2014-Sep-22 08:33N 37°57' E 023°35'0 0.0
2014-Sep-22 07:33N 37°57' E 023°35'0 0.0
2014-Sep-22 06:33N 37°57' E 023°35'0 0.0
2014-Sep-22 05:33N 37°57' E 023°35'0 0.0
2014-Sep-22 04:33N 37°57' E 023°35'0 0.0
2014-Sep-22 03:33N 37°57' E 023°35'0 0.0
2014-Sep-22 02:33N 37°57' E 023°35'0 0.0
2014-Sep-22 01:33N 37°57' E 023°35'0 0.0
2014-Sep-22 00:33N 37°57' E 023°35'0 0.0
2014-Sep-21 23:33N 37°57' E 023°35'0 0.0
2014-Sep-21 22:33N 37°57' E 023°35'0 0.0
2014-Sep-21 21:33N 37°57' E 023°35'0 0.0
2014-Sep-21 20:33N 37°57' E 023°35'0 0.0
2014-Sep-21 19:33N 37°57' E 023°35'0 0.0
2014-Sep-21 18:33N 37°57' E 023°35'1 0.9
2014-Sep-21 17:33N 37°56' E 023°35'3 2.9
2014-Sep-21 16:33N 37°53' E 023°35'3 3.2
2014-Sep-21 15:33N 37°52' E 023°32'0 0.0
2014-Sep-21 14:33N 37°52' E 023°32'0 0.0
2014-Sep-21 13:33N 37°52' E 023°32'0 0.1
2014-Sep-21 12:33N 37°52' E 023°32'0 0.0
2014-Sep-21 11:33N 37°52' E 023°32'0 0.0
2014-Sep-21 10:33N 37°52' E 023°32'0 0.0
2014-Sep-21 09:33N 37°52' E 023°32'0 0.0
2014-Sep-21 08:33N 37°52' E 023°32'0 0.0
2014-Sep-21 07:33N 37°52' E 023°32'0 0.1
2014-Sep-21 06:33N 37°52' E 023°32'0 0.0
2014-Sep-21 05:33N 37°52' E 023°32'0 0.0
2014-Sep-21 04:33N 37°52' E 023°32'0 0.1
2014-Sep-21 03:33N 37°52' E 023°32'0 0.1
2014-Sep-21 02:33N 37°52' E 023°32'0 0.0
2014-Sep-21 01:33N 37°52' E 023°32'0 0.0
2014-Sep-21 00:33N 37°52' E 023°32'0 0.1
2014-Sep-20 23:33N 37°52' E 023°31'0 0.0
2014-Sep-20 22:33N 37°52' E 023°31'0 0.0
2014-Sep-20 21:33N 37°52' E 023°31'0 0.0
2014-Sep-20 20:33N 37°52' E 023°31'0 0.0
2014-Sep-20 19:33N 37°52' E 023°31'0 0.0
2014-Sep-20 18:33N 37°52' E 023°32'0 0.0
2014-Sep-20 17:33N 37°52' E 023°32'0 0.0
2014-Sep-20 16:33N 37°52' E 023°31'0 0.0
2014-Sep-20 15:33N 37°52' E 023°32'0 0.0
2014-Sep-20 14:33N 37°52' E 023°32'0 0.0
2014-Sep-20 13:33N 37°52' E 023°31'0 0.0
2014-Sep-20 12:33N 37°52' E 023°32'0 0.0
2014-Sep-20 11:33N 37°52' E 023°32'0 0.0
2014-Sep-20 10:33N 37°52' E 023°32'0 0.1
2014-Sep-20 09:33N 37°52' E 023°31'0 0.1
2014-Sep-20 08:33N 37°52' E 023°31'0 0.0
2014-Sep-20 07:33N 37°52' E 023°32'0 0.0
2014-Sep-20 06:33N 37°52' E 023°32'0 0.0
2014-Sep-20 05:33N 37°52' E 023°32'0 0.0
2014-Sep-20 04:33N 37°52' E 023°32'0 0.0
2014-Sep-20 03:33N 37°52' E 023°32'0 0.0
2014-Sep-20 02:33N 37°52' E 023°31'0 0.0
2014-Sep-20 01:33N 37°52' E 023°31'0 0.0
2014-Sep-20 00:33N 37°52' E 023°31'0 0.0
2014-Sep-19 23:33N 37°52' E 023°31'0 0.0
2014-Sep-19 22:33N 37°52' E 023°31'0 0.0
2014-Sep-19 21:33N 37°52' E 023°32'0 0.1
2014-Sep-19 20:33N 37°52' E 023°31'0 0.0
2014-Sep-19 19:33N 37°52' E 023°31'0 0.0
2014-Sep-19 18:33N 37°52' E 023°31'0 0.0
2014-Sep-19 17:33N 37°52' E 023°31'0 0.0
2014-Sep-19 16:33N 37°52' E 023°31'0 0.0
2014-Sep-19 15:33N 37°52' E 023°31'0 0.0
2014-Sep-19 14:33N 37°52' E 023°31'0 0.1
2014-Sep-19 13:33N 37°52' E 023°32'0 0.1
2014-Sep-19 12:33N 37°52' E 023°32'0 0.1
2014-Sep-19 11:33N 37°52' E 023°31'0 0.0
2014-Sep-19 10:33N 37°52' E 023°31'0 0.1
2014-Sep-19 09:33N 37°52' E 023°32'0 0.0
2014-Sep-19 08:33N 37°52' E 023°32'0 0.0
2014-Sep-19 07:33N 37°52' E 023°32'0 0.0
2014-Sep-19 06:33N 37°52' E 023°32'3 2.7
2014-Sep-19 05:34N 37°52' E 023°35'5 4.7
2014-Sep-19 04:31N 37°57' E 023°35'0 0.0
2014-Sep-19 03:31N 37°57' E 023°35'0 0.0
2014-Sep-19 02:31N 37°57' E 023°35'0 0.0
2014-Sep-19 01:31N 37°57' E 023°35'0 0.0
2014-Sep-19 00:31N 37°57' E 023°35'0 0.0
2014-Sep-18 23:31N 37°57' E 023°35'0 0.0
2014-Sep-18 22:31N 37°57' E 023°35'0 0.0
2014-Sep-18 21:31N 37°57' E 023°35'0 0.0
2014-Sep-18 20:31N 37°57' E 023°35'0 0.0
2014-Sep-18 19:31N 37°57' E 023°35'0 0.0
2014-Sep-18 18:31N 37°57' E 023°35'0 0.0
2014-Sep-18 17:31N 37°57' E 023°35'0 0.0
2014-Sep-18 16:31N 37°57' E 023°35'0 0.0
2014-Sep-18 15:31N 37°57' E 023°35'0 0.0
2014-Sep-18 14:34N 37°57' E 023°35'5 5.3
2014-Sep-18 13:34N 37°52' E 023°35'4 3.6
2014-Sep-18 12:33N 37°51' E 023°30'0 0.0
2014-Sep-18 11:33N 37°51' E 023°30'0 0.0
2014-Sep-18 10:33N 37°51' E 023°30'0 0.1
2014-Sep-18 09:33N 37°51' E 023°30'0 0.1
2014-Sep-18 08:33N 37°51' E 023°30'0 0.0
2014-Sep-18 07:33N 37°51' E 023°30'0 0.0
2014-Sep-18 06:33N 37°51' E 023°30'0 0.0
2014-Sep-18 05:33N 37°51' E 023°30'0 0.0
2014-Sep-18 04:33N 37°51' E 023°30'0 0.0
2014-Sep-18 03:33N 37°51' E 023°30'0 0.0
2014-Sep-18 02:33N 37°51' E 023°30'0 0.0
2014-Sep-18 01:33N 37°51' E 023°30'0 0.0
2014-Sep-18 00:33N 37°51' E 023°30'0 0.0
2014-Sep-17 23:33N 37°51' E 023°30'0 0.0
2014-Sep-17 22:33N 37°51' E 023°30'0 0.0
2014-Sep-17 21:33N 37°51' E 023°30'0 0.1
2014-Sep-17 20:33N 37°51' E 023°30'0 0.0
2014-Sep-17 19:33N 37°51' E 023°30'0 0.0
2014-Sep-17 18:33N 37°51' E 023°30'2 2.4
2014-Sep-17 17:33N 37°51' E 023°33'9 9.4
2014-Sep-17 16:33N 37°45' E 023°43'1111.0
2014-Sep-17 15:33N 37°35' E 023°48'4611.3
2014-Sep-17 11:28N 36°51' E 023°33'  
Track history (hours):
 
Tides and Currents Weather Stations Pressure Air Temp Water Temp Dewpoint Dewpoint Depression Visibility Wind Speed Wind Dir Waves Ship Positions

Ital Oriente

Last reported at 2014-Sep-26 13:33 UTC. Time now 2014-Oct-01 04:00 UTC.
Position N 40°27' E 028°38'.

Length 222 m; draft 8.8 m.

Type: Cargo ship. MMSI: 636091278.

Date/timePositionNaut miles runAvg speedWind from/ knotsBaromVisibWave heightAir tempDewpointWater temp
2014-Sep-26 13:33N 40°27' E 028°38'1615.2
2014-Sep-26 12:29N 40°26' E 028°60'4 1.8
2014-Sep-26 10:11N 40°25' E 029°05'0 0.0
2014-Sep-26 06:29N 40°25' E 029°05'0 0.0
2014-Sep-26 05:11N 40°25' E 029°05'0 0.0
2014-Sep-26 04:29N 40°25' E 029°05'0 0.0
2014-Sep-26 02:29N 40°25' E 029°05'0 0.0
2014-Sep-26 01:29N 40°25' E 029°05'3 2.2
2014-Sep-26 00:11N 40°28' E 029°03'1 0.3
2014-Sep-25 21:24N 40°27' E 029°02'1213.9
2014-Sep-25 20:31N 40°30' E 028°46'1313.3
2014-Sep-25 19:33N 40°40' E 028°57'1515.3
2014-Sep-25 18:33N 40°43' E 029°17'1211.4
2014-Sep-25 17:31N 40°46' E 029°32'0 0.3
2014-Sep-25 16:30N 40°46' E 029°32'0 0.0
2014-Sep-25 15:30N 40°46' E 029°32'0 0.0
2014-Sep-25 14:24N 40°46' E 029°32'0 0.0
2014-Sep-25 13:24N 40°46' E 029°32'0 0.0
2014-Sep-25 12:18N 40°46' E 029°32'0 0.0
2014-Sep-25 10:24N 40°46' E 029°32'0 0.0
2014-Sep-25 08:24N 40°46' E 029°32'0 0.0
2014-Sep-25 06:24N 40°46' E 029°32'5 5.3
2014-Sep-25 05:30N 40°44' E 029°26'8 8.8
2014-Sep-25 04:33N 40°45' E 029°15'1312.8
2014-Sep-25 03:32N 40°51' E 028°60'9 9.4
2014-Sep-25 02:32N 41°00' E 028°60'1 0.2
2014-Sep-24 21:11N 41°00' E 029°01'0 0.0
2014-Sep-24 20:31N 41°00' E 029°01'2 2.1
2014-Sep-24 19:33N 40°58' E 028°60'9 9.1
2014-Sep-24 18:33N 40°51' E 028°54'4 3.7
2014-Sep-24 17:32N 40°51' E 028°49'8 0.5
2014-Sep-24 01:31N 40°56' E 028°41'2 0.1
2014-Sep-23 09:09N 40°56' E 028°38'5 8.3
2014-Sep-23 08:31N 40°54' E 028°31'16714.0
2014-Sep-22 20:32N 39°20' E 025°30'2118.8
2014-Sep-22 19:24N 39°01' E 025°18'1618.8
2014-Sep-22 18:33N 38°47' E 025°09'5618.4
2014-Sep-22 15:32N 37°57' E 024°37'1918.9
2014-Sep-22 14:33N 37°45' E 024°19'1817.9
2014-Sep-22 13:33N 37°36' E 023°60'1717.1
2014-Sep-22 12:33N 37°43' E 023°40'1414.2
2014-Sep-22 11:33N 37°56' E 023°36'1 1.1
2014-Sep-22 10:33N 37°57' E 023°35'0 0.0
2014-Sep-22 09:33N 37°57' E 023°35'0 0.0
2014-Sep-22 08:33N 37°57' E 023°35'0 0.0
2014-Sep-22 07:33N 37°57' E 023°35'0 0.0
2014-Sep-22 06:33N 37°57' E 023°35'0 0.0
2014-Sep-22 05:33N 37°57' E 023°35'0 0.0
2014-Sep-22 04:33N 37°57' E 023°35'0 0.0
2014-Sep-22 03:33N 37°57' E 023°35'0 0.0
2014-Sep-22 02:33N 37°57' E 023°35'0 0.0
2014-Sep-22 01:33N 37°57' E 023°35'0 0.0
2014-Sep-22 00:33N 37°57' E 023°35'0 0.0
2014-Sep-21 23:33N 37°57' E 023°35'0 0.0
2014-Sep-21 22:33N 37°57' E 023°35'0 0.0
2014-Sep-21 21:33N 37°57' E 023°35'0 0.0
2014-Sep-21 20:33N 37°57' E 023°35'0 0.0
2014-Sep-21 19:33N 37°57' E 023°35'0 0.0
2014-Sep-21 18:33N 37°57' E 023°35'1 0.9
2014-Sep-21 17:33N 37°56' E 023°35'3 2.9
2014-Sep-21 16:33N 37°53' E 023°35'3 3.2
2014-Sep-21 15:33N 37°52' E 023°32'0 0.0
2014-Sep-21 14:33N 37°52' E 023°32'0 0.0
2014-Sep-21 13:33N 37°52' E 023°32'0 0.1
2014-Sep-21 12:33N 37°52' E 023°32'0 0.0
2014-Sep-21 11:33N 37°52' E 023°32'0 0.0
2014-Sep-21 10:33N 37°52' E 023°32'0 0.0
2014-Sep-21 09:33N 37°52' E 023°32'0 0.0
2014-Sep-21 08:33N 37°52' E 023°32'0 0.0
2014-Sep-21 07:33N 37°52' E 023°32'0 0.1
2014-Sep-21 06:33N 37°52' E 023°32'0 0.0
2014-Sep-21 05:33N 37°52' E 023°32'0 0.0
2014-Sep-21 04:33N 37°52' E 023°32'0 0.1
2014-Sep-21 03:33N 37°52' E 023°32'0 0.1
2014-Sep-21 02:33N 37°52' E 023°32'0 0.0
2014-Sep-21 01:33N 37°52' E 023°32'0 0.0
2014-Sep-21 00:33N 37°52' E 023°32'0 0.1
2014-Sep-20 23:33N 37°52' E 023°31'0 0.0
2014-Sep-20 22:33N 37°52' E 023°31'0 0.0
2014-Sep-20 21:33N 37°52' E 023°31'0 0.0
2014-Sep-20 20:33N 37°52' E 023°31'0 0.0
2014-Sep-20 19:33N 37°52' E 023°31'0 0.0
2014-Sep-20 18:33N 37°52' E 023°32'0 0.0
2014-Sep-20 17:33N 37°52' E 023°32'0 0.0
2014-Sep-20 16:33N 37°52' E 023°31'0 0.0
2014-Sep-20 15:33N 37°52' E 023°32'0 0.0
2014-Sep-20 14:33N 37°52' E 023°32'0 0.0
2014-Sep-20 13:33N 37°52' E 023°31'0 0.0
2014-Sep-20 12:33N 37°52' E 023°32'0 0.0
2014-Sep-20 11:33N 37°52' E 023°32'0 0.0
2014-Sep-20 10:33N 37°52' E 023°32'0 0.1
2014-Sep-20 09:33N 37°52' E 023°31'0 0.1
2014-Sep-20 08:33N 37°52' E 023°31'0 0.0
2014-Sep-20 07:33N 37°52' E 023°32'0 0.0
2014-Sep-20 06:33N 37°52' E 023°32'0 0.0
2014-Sep-20 05:33N 37°52' E 023°32'0 0.0
2014-Sep-20 04:33N 37°52' E 023°32'0 0.0
2014-Sep-20 03:33N 37°52' E 023°32'0 0.0
2014-Sep-20 02:33N 37°52' E 023°31'0 0.0
2014-Sep-20 01:33N 37°52' E 023°31'0 0.0
2014-Sep-20 00:33N 37°52' E 023°31'0 0.0
2014-Sep-19 23:33N 37°52' E 023°31'0 0.0
2014-Sep-19 22:33N 37°52' E 023°31'0 0.0
2014-Sep-19 21:33N 37°52' E 023°32'0 0.1
2014-Sep-19 20:33N 37°52' E 023°31'0 0.0
2014-Sep-19 19:33N 37°52' E 023°31'0 0.0
2014-Sep-19 18:33N 37°52' E 023°31'0 0.0
2014-Sep-19 17:33N 37°52' E 023°31'0 0.0
2014-Sep-19 16:33N 37°52' E 023°31'0 0.0
2014-Sep-19 15:33N 37°52' E 023°31'0 0.0
2014-Sep-19 14:33N 37°52' E 023°31'0 0.1
2014-Sep-19 13:33N 37°52' E 023°32'0 0.1
2014-Sep-19 12:33N 37°52' E 023°32'0 0.1
2014-Sep-19 11:33N 37°52' E 023°31'0 0.0
2014-Sep-19 10:33N 37°52' E 023°31'0 0.1
2014-Sep-19 09:33N 37°52' E 023°32'0 0.0
2014-Sep-19 08:33N 37°52' E 023°32'0 0.0
2014-Sep-19 07:33N 37°52' E 023°32'0 0.0
2014-Sep-19 06:33N 37°52' E 023°32'3 2.7
2014-Sep-19 05:34N 37°52' E 023°35'5 4.7
2014-Sep-19 04:31N 37°57' E 023°35'0 0.0
2014-Sep-19 03:31N 37°57' E 023°35'0 0.0
2014-Sep-19 02:31N 37°57' E 023°35'0 0.0
2014-Sep-19 01:31N 37°57' E 023°35'0 0.0
2014-Sep-19 00:31N 37°57' E 023°35'0 0.0
2014-Sep-18 23:31N 37°57' E 023°35'0 0.0
2014-Sep-18 22:31N 37°57' E 023°35'0 0.0
2014-Sep-18 21:31N 37°57' E 023°35'0 0.0
2014-Sep-18 20:31N 37°57' E 023°35'0 0.0
2014-Sep-18 19:31N 37°57' E 023°35'0 0.0
2014-Sep-18 18:31N 37°57' E 023°35'0 0.0
2014-Sep-18 17:31N 37°57' E 023°35'0 0.0
2014-Sep-18 16:31N 37°57' E 023°35'0 0.0
2014-Sep-18 15:31N 37°57' E 023°35'0 0.0
2014-Sep-18 14:34N 37°57' E 023°35'5 5.3
2014-Sep-18 13:34N 37°52' E 023°35'4 3.6
2014-Sep-18 12:33N 37°51' E 023°30'0 0.0
2014-Sep-18 11:33N 37°51' E 023°30'0 0.0
2014-Sep-18 10:33N 37°51' E 023°30'0 0.1
2014-Sep-18 09:33N 37°51' E 023°30'0 0.1
2014-Sep-18 08:33N 37°51' E 023°30'0 0.0
2014-Sep-18 07:33N 37°51' E 023°30'0 0.0
2014-Sep-18 06:33N 37°51' E 023°30'0 0.0
2014-Sep-18 05:33N 37°51' E 023°30'0 0.0
2014-Sep-18 04:33N 37°51' E 023°30'0 0.0
2014-Sep-18 03:33N 37°51' E 023°30'0 0.0
2014-Sep-18 02:33N 37°51' E 023°30'0 0.0
2014-Sep-18 01:33N 37°51' E 023°30'0 0.0
2014-Sep-18 00:33N 37°51' E 023°30'0 0.0
2014-Sep-17 23:33N 37°51' E 023°30'0 0.0
2014-Sep-17 22:33N 37°51' E 023°30'0 0.0
2014-Sep-17 21:33N 37°51' E 023°30'0 0.1
2014-Sep-17 20:33N 37°51' E 023°30'0 0.0
2014-Sep-17 19:33N 37°51' E 023°30'0 0.0
2014-Sep-17 18:33N 37°51' E 023°30'2 2.4
2014-Sep-17 17:33N 37°51' E 023°33'9 9.4
2014-Sep-17 16:33N 37°45' E 023°43'1111.0
2014-Sep-17 15:33N 37°35' E 023°48'4611.3
2014-Sep-17 11:28N 36°51' E 023°33'  

Dump ship's entire track history